Time;durP1;ratioP1;P1;durP2;ratioP2;P2;SDS_P1;SDS_P2;PMS_P1;PMS_P2;Temp;Humidity;BMP_temperature;BMP_pressure;BME280_temperature;BME280_humidity;BME280_pressure;Samples;Min_cycle;Max_cycle;Signal;HPM_P1;HPM_P2
2022/10/19 00:01:07;;;;;;;12.38;8.07;;;;;;;;;;4978360;28;20206;-47
2022/10/19 00:03:35;;;;;;;12.90;9.20;;;;;;;;;;4978646;28;20242;-47
2022/10/19 00:06:15;;;;;;;11.68;8.63;;;;;;;;;;4978228;28;20630;-47
2022/10/19 00:08:43;;;;;;;11.85;8.32;;;;;;;;;;4978619;28;20214;-46
2022/10/19 00:11:11;;;;;;;13.27;8.40;;;;;;;;;;4978438;28;20217;-46
2022/10/19 00:13:39;;;;;;;11.00;8.38;;;;;;;;;;4978511;28;20207;-46
2022/10/19 00:16:11;;;;;;;17.15;10.38;;;;;;;;;;4978233;28;20212;-47
2022/10/19 00:18:39;;;;;;;14.68;9.63;;;;;;;;;;4978001;28;20227;-46
2022/10/19 00:21:07;;;;;;;12.95;9.63;;;;;;;;;;4978424;28;20290;-46
2022/10/19 00:23:35;;;;;;;15.15;10.18;;;;;;;;;;4977939;28;20552;-46
2022/10/19 00:26:02;;;;;;;14.27;9.90;;;;;;;;;;4978126;28;20523;-46
2022/10/19 00:28:30;;;;;;;16.25;9.75;;;;;;;;;;4978134;28;20230;-46
2022/10/19 00:31:02;;;;;;;16.85;10.48;;;;;;;;;;4976919;28;20199;-46
2022/10/19 00:33:29;;;;;;;20.35;11.32;;;;;;;;;;4977848;28;20203;-46
2022/10/19 00:35:56;;;;;;;17.98;11.35;;;;;;;;;;4977742;28;20213;-46
2022/10/19 00:38:23;;;;;;;15.32;11.35;;;;;;;;;;4977771;28;20238;-46
2022/10/19 00:40:50;;;;;;;15.27;11.10;;;;;;;;;;4977714;28;20638;-46
2022/10/19 00:43:23;;;;;;;19.90;11.30;;;;;;;;;;4977853;28;20214;-46
2022/10/19 00:45:51;;;;;;;18.42;12.10;;;;;;;;;;4978308;28;20234;-46
2022/10/19 00:48:25;;;;;;;16.85;13.40;;;;;;;;;;4977987;28;20211;-48
2022/10/19 00:50:53;;;;;;;17.98;13.75;;;;;;;;;;4977056;28;20203;-46
2022/10/19 00:53:20;;;;;;;18.77;16.20;;;;;;;;;;4976660;28;20238;-46
2022/10/19 00:55:47;;;;;;;22.75;16.02;;;;;;;;;;4976824;28;20694;-46
2022/10/19 00:58:14;;;;;;;22.17;15.48;;;;;;;;;;4976849;28;20226;-46
2022/10/19 01:00:41;;;;;;;24.50;15.25;;;;;;;;;;4978135;28;20293;-46
2022/10/19 01:03:10;;;;;;;19.10;14.23;;;;;;;;;;4977445;28;20566;-46
2022/10/19 01:05:37;;;;;;;19.88;14.68;;;;;;;;;;4976489;28;20286;-46
2022/10/19 01:08:05;;;;;;;23.85;16.13;;;;;;;;;;4976567;28;20221;-46
2022/10/19 01:11:03;;;;;;;28.38;16.45;;;;;;;;;;4977245;28;20207;-46
2022/10/19 01:13:39;;;;;;;21.58;15.93;;;;;;;;;;4977322;28;20207;-46
2022/10/19 01:16:32;;;;;;;23.27;17.30;;;;;;;;;;4977281;28;20202;-46
2022/10/19 01:19:24;;;;;;;25.95;16.48;;;;;;;;;;4976790;28;20281;-46
2022/10/19 01:22:14;;;;;;;23.05;17.20;;;;;;;;;;4976187;28;20272;-46
2022/10/19 01:25:20;;;;;;;25.02;16.50;;;;;;;;;;4976959;28;20214;-46
2022/10/19 01:27:56;;;;;;;25.23;16.70;;;;;;;;;;4976098;28;20221;-46
2022/10/19 01:30:35;;;;;;;26.70;17.23;;;;;;;;;;4976982;28;20202;-46
2022/10/19 01:33:05;;;;;;;27.80;18.15;;;;;;;;;;4976876;28;20225;-46
2022/10/19 01:35:55;;;;;;;26.77;17.80;;;;;;;;;;4976582;28;20199;-46
2022/10/19 01:38:43;;;;;;;25.77;16.95;;;;;;;;;;4973437;28;20278;-46
2022/10/19 01:41:16;;;;;;;31.02;17.55;;;;;;;;;;4975841;28;20211;-46
2022/10/19 01:43:57;;;;;;;30.70;18.52;;;;;;;;;;4976558;28;20230;-46
2022/10/19 01:46:37;;;;;;;33.78;19.42;;;;;;;;;;4976936;28;20524;-46
2022/10/19 01:49:15;;;;;;;34.60;20.23;;;;;;;;;;4975414;28;20234;-46
2022/10/19 01:51:46;;;;;;;34.05;19.40;;;;;;;;;;4975598;28;20202;-46
2022/10/19 01:54:15;;;;;;;37.22;21.55;;;;;;;;;;4975802;28;20186;-45
2022/10/19 01:56:44;;;;;;;31.00;20.20;;;;;;;;;;4975621;28;20211;-46
2022/10/19 01:59:11;;;;;;;29.67;19.88;;;;;;;;;;4975542;28;20222;-46
2022/10/19 02:01:41;;;;;;;31.75;19.77;;;;;;;;;;4975329;28;20202;-46
2022/10/19 02:04:10;;;;;;;29.80;20.23;;;;;;;;;;4975612;28;20568;-46
2022/10/19 02:06:38;;;;;;;34.08;20.90;;;;;;;;;;4975449;28;20203;-46
2022/10/19 02:09:04;;;;;;;34.25;21.83;;;;;;;;;;4975439;28;20236;-46
2022/10/19 02:11:34;;;;;;;35.92;23.73;;;;;;;;;;4976104;28;20202;-46
2022/10/19 02:14:08;;;;;;;36.80;22.30;;;;;;;;;;4975476;28;20293;-47
2022/10/19 02:16:40;;;;;;;37.35;22.85;;;;;;;;;;4975645;28;20216;-46
2022/10/19 02:19:07;;;;;;;31.55;21.55;;;;;;;;;;4975756;28;20221;-46
2022/10/19 02:21:34;;;;;;;31.60;20.45;;;;;;;;;;4975476;28;20203;-46
2022/10/19 02:24:01;;;;;;;33.13;20.92;;;;;;;;;;4976274;28;20203;-47
2022/10/19 02:26:29;;;;;;;32.83;20.63;;;;;;;;;;4975957;28;20217;-46
2022/10/19 02:28:56;;;;;;;29.58;20.30;;;;;;;;;;4976155;28;20206;-46
2022/10/19 02:31:23;;;;;;;27.67;18.50;;;;;;;;;;4975002;28;20211;-46
2022/10/19 02:33:50;;;;;;;25.00;19.40;;;;;;;;;;4975735;28;20293;-45
2022/10/19 02:36:17;;;;;;;29.55;18.15;;;;;;;;;;4976662;28;20273;-47
2022/10/19 02:38:44;;;;;;;32.53;18.48;;;;;;;;;;4976267;28;20230;-46
2022/10/19 02:41:17;;;;;;;27.25;19.17;;;;;;;;;;4975867;28;20626;-46
2022/10/19 02:43:47;;;;;;;29.02;20.48;;;;;;;;;;4976070;28;20225;-46
2022/10/19 02:46:21;;;;;;;32.88;21.63;;;;;;;;;;4975109;28;20214;-46
2022/10/19 02:48:49;;;;;;;30.55;20.38;;;;;;;;;;4975605;28;20302;-46
2022/10/19 02:51:32;;;;;;;28.83;21.13;;;;;;;;;;4958614;28;20202;-46
2022/10/19 02:54:00;;;;;;;30.02;20.08;;;;;;;;;;4975884;28;20272;-46
2022/10/19 02:56:32;;;;;;;37.28;21.35;;;;;;;;;;4976136;28;20187;-47
2022/10/19 02:58:59;;;;;;;33.08;21.08;;;;;;;;;;4975708;28;20234;-46
2022/10/19 03:01:26;;;;;;;37.05;22.13;;;;;;;;;;4975953;28;20207;-46
2022/10/19 03:03:52;;;;;;;34.92;21.10;;;;;;;;;;4975974;28;20239;-46
2022/10/19 03:06:19;;;;;;;35.83;22.45;;;;;;;;;;4975650;28;20553;-46
2022/10/19 03:08:46;;;;;;;30.77;21.58;;;;;;;;;;4975934;28;20213;-46
2022/10/19 03:11:13;;;;;;;30.95;22.08;;;;;;;;;;4974218;28;20210;-46
2022/10/19 03:13:41;;;;;;;27.40;18.13;;;;;;;;;;4975706;28;20207;-46
2022/10/19 03:16:10;;;;;;;22.80;16.80;;;;;;;;;;4975421;28;20651;-46
2022/10/19 03:18:38;;;;;;;20.92;13.82;;;;;;;;;;4975595;28;20238;-46
2022/10/19 03:21:08;;;;;;;24.35;15.57;;;;;;;;;;4975358;28;20223;-46
2022/10/19 03:23:35;;;;;;;22.63;15.38;;;;;;;;;;4974711;28;20269;-46
2022/10/19 03:26:03;;;;;;;22.50;16.38;;;;;;;;;;4975601;28;20206;-46
2022/10/19 03:28:33;;;;;;;25.90;16.55;;;;;;;;;;4975758;28;20231;-46
2022/10/19 03:31:00;;;;;;;22.15;16.63;;;;;;;;;;4977709;28;20207;-46
2022/10/19 03:33:27;;;;;;;25.85;18.20;;;;;;;;;;4979307;28;20241;-46
2022/10/19 03:36:23;;;;;;;29.85;17.65;;;;;;;;;;4978948;28;20211;-46
2022/10/19 03:39:00;;;;;;;28.98;18.33;;;;;;;;;;4979377;28;20227;-46
2022/10/19 03:41:29;;;;;;;24.45;17.95;;;;;;;;;;4978996;28;20651;-46
2022/10/19 03:43:56;;;;;;;27.20;17.38;;;;;;;;;;4978679;28;20230;-46
2022/10/19 03:46:24;;;;;;;30.02;18.05;;;;;;;;;;4978779;28;20238;-46
2022/10/19 03:48:52;;;;;;;26.73;18.05;;;;;;;;;;4978802;28;20211;-46
2022/10/19 03:51:21;;;;;;;27.00;19.52;;;;;;;;;;4978575;28;20215;-46
2022/10/19 03:53:51;;;;;;;32.05;20.17;;;;;;;;;;4978912;28;20203;-46
2022/10/19 03:56:21;;;;;;;34.72;20.02;;;;;;;;;;4966792;28;20211;-47
2022/10/19 03:58:49;;;;;;;29.55;19.05;;;;;;;;;;4958292;29;20262;-46
2022/10/19 04:01:43;;;;;;;30.58;20.00;;;;;;;;;;4958346;29;20228;-47
2022/10/19 04:04:13;;;;;;;24.45;17.30;;;;;;;;;;4957354;28;20250;-46
2022/10/19 04:06:43;;;;;;;27.13;17.00;;;;;;;;;;4957785;28;20772;-46
2022/10/19 04:09:13;;;;;;;29.02;15.73;;;;;;;;;;4958465;28;20310;-46
2022/10/19 04:11:40;;;;;;;24.25;16.15;;;;;;;;;;4957283;28;20541;-46
2022/10/19 04:14:07;;;;;;;28.92;15.45;;;;;;;;;;4958126;29;20227;-46
2022/10/19 04:16:35;;;;;;;24.33;13.80;;;;;;;;;;4958285;28;20239;-46
2022/10/19 04:19:02;;;;;;;20.92;12.98;;;;;;;;;;4958032;28;20781;-46
2022/10/19 04:21:35;;;;;;;22.85;11.90;;;;;;;;;;4958151;28;20242;-47
2022/10/19 04:24:04;;;;;;;22.75;12.88;;;;;;;;;;4958009;28;20223;-46
2022/10/19 04:26:32;;;;;;;19.45;12.10;;;;;;;;;;4957319;28;20232;-46
2022/10/19 04:29:00;;;;;;;20.70;12.90;;;;;;;;;;4957808;28;20235;-47
2022/10/19 04:31:27;;;;;;;25.80;13.35;;;;;;;;;;4957532;28;20578;-47
2022/10/19 04:33:55;;;;;;;18.90;13.25;;;;;;;;;;4957640;28;20223;-47
2022/10/19 04:36:22;;;;;;;22.73;13.85;;;;;;;;;;4957306;28;20278;-47
2022/10/19 04:38:49;;;;;;;21.10;13.23;;;;;;;;;;4955738;28;20235;-46
2022/10/19 04:41:18;;;;;;;23.20;14.38;;;;;;;;;;4956806;28;20231;-47
2022/10/19 04:43:46;;;;;;;24.27;14.43;;;;;;;;;;4956734;28;20254;-48
2022/10/19 04:46:15;;;;;;;23.15;14.07;;;;;;;;;;4955673;28;20231;-48
2022/10/19 04:48:43;;;;;;;28.05;15.93;;;;;;;;;;4955695;28;20223;-46
2022/10/19 04:51:11;;;;;;;21.80;14.27;;;;;;;;;;4956527;28;20227;-47
2022/10/19 04:53:39;;;;;;;23.40;14.50;;;;;;;;;;4956893;28;20282;-46
2022/10/19 04:56:08;;;;;;;28.73;14.40;;;;;;;;;;4955617;28;20242;-46
2022/10/19 04:58:35;;;;;;;20.90;13.30;;;;;;;;;;4955332;28;20326;-48
2022/10/19 05:01:10;;;;;;;24.65;13.25;;;;;;;;;;4956760;28;20232;-46
2022/10/19 05:03:38;;;;;;;20.20;13.85;;;;;;;;;;4956052;28;20235;-48
2022/10/19 05:06:06;;;;;;;22.17;13.50;;;;;;;;;;4956990;28;20227;-46
2022/10/19 05:08:33;;;;;;;21.63;14.80;;;;;;;;;;4956614;28;20269;-46
2022/10/19 05:11:06;;;;;;;32.50;14.05;;;;;;;;;;4958046;28;20532;-49
2022/10/19 05:13:33;;;;;;;22.73;14.32;;;;;;;;;;4965780;28;20222;-47
2022/10/19 05:16:03;;;;;;;22.88;14.35;;;;;;;;;;4962366;28;20223;-49
2022/10/19 05:18:30;;;;;;;20.58;15.23;;;;;;;;;;4957992;28;20258;-46
2022/10/19 05:21:08;;;;;;;22.92;15.60;;;;;;;;;;4957571;29;20226;-47
2022/10/19 05:23:36;;;;;;;25.63;15.10;;;;;;;;;;4957278;29;20227;-48
2022/10/19 05:26:16;;;;;;;21.15;13.68;;;;;;;;;;4957163;29;20227;-48
2022/10/19 05:28:46;;;;;;;22.02;14.48;;;;;;;;;;4957266;28;20222;-48
2022/10/19 05:31:18;;;;;;;22.50;13.65;;;;;;;;;;4957464;29;20199;-48
2022/10/19 05:33:46;;;;;;;25.10;15.30;;;;;;;;;;4957422;29;20207;-49
2022/10/19 05:36:25;;;;;;;21.25;13.23;;;;;;;;;;4957465;29;20207;-49
2022/10/19 05:38:53;;;;;;;25.05;13.77;;;;;;;;;;4957201;29;20247;-49
2022/10/19 05:41:21;;;;;;;24.40;14.27;;;;;;;;;;4957441;29;20219;-47
2022/10/19 05:43:57;;;;;;;20.67;13.13;;;;;;;;;;4957091;29;20630;-47
2022/10/19 05:46:25;;;;;;;21.23;13.85;;;;;;;;;;4957722;29;20265;-48
2022/10/19 05:48:52;;;;;;;27.02;13.60;;;;;;;;;;4957175;28;20266;-49
2022/10/19 05:51:19;;;;;;;20.52;13.85;;;;;;;;;;4957277;29;20542;-47
2022/10/19 05:53:46;;;;;;;23.42;13.48;;;;;;;;;;4957517;28;20526;-48
2022/10/19 05:56:17;;;;;;;22.52;13.80;;;;;;;;;;4956957;29;20627;-48
2022/10/19 05:58:44;;;;;;;20.95;13.18;;;;;;;;;;4957092;29;20237;-48
2022/10/19 06:01:11;;;;;;;22.58;12.98;;;;;;;;;;4957124;29;20203;-48
2022/10/19 06:03:39;;;;;;;20.80;12.52;;;;;;;;;;4957020;29;20658;-49
2022/10/19 06:06:06;;;;;;;21.05;13.43;;;;;;;;;;4956769;29;20270;-48
2022/10/19 06:08:34;;;;;;;19.58;12.13;;;;;;;;;;4957501;29;20216;-50
2022/10/19 06:11:13;;;;;;;20.05;11.10;;;;;;;;;;4957002;29;20290;-48
2022/10/19 06:13:41;;;;;;;17.40;10.98;;;;;;;;;;4957102;29;20246;-49
2022/10/19 06:16:10;;;;;;;19.30;10.63;;;;;;;;;;4956926;29;20214;-47
2022/10/19 06:18:37;;;;;;;20.73;11.80;;;;;;;;;;4956793;29;20278;-48
2022/10/19 06:21:07;;;;;;;17.83;11.23;;;;;;;;;;4956963;29;20207;-47
2022/10/19 06:23:34;;;;;;;19.42;10.90;;;;;;;;;;4956553;29;20623;-47
2022/10/19 06:26:06;;;;;;;22.70;11.05;;;;;;;;;;4956752;28;20207;-47
2022/10/19 06:28:33;;;;;;;17.75;11.60;;;;;;;;;;4956677;28;20204;-47
2022/10/19 06:31:00;;;;;;;18.65;10.88;;;;;;;;;;4956436;29;20243;-49
2022/10/19 06:33:30;;;;;;;16.90;10.55;;;;;;;;;;4957019;29;20242;-48
2022/10/19 06:36:06;;;;;;;19.48;10.82;;;;;;;;;;4956702;29;20591;-47
2022/10/19 06:38:33;;;;;;;16.25;10.65;;;;;;;;;;4956480;28;20665;-49
2022/10/19 06:41:01;;;;;;;15.98;10.27;;;;;;;;;;4956838;29;20207;-47
2022/10/19 06:43:27;;;;;;;15.80;10.20;;;;;;;;;;4956639;28;20231;-48
2022/10/19 06:45:55;;;;;;;14.68;10.30;;;;;;;;;;4956734;29;20207;-48
2022/10/19 06:48:22;;;;;;;22.35;10.75;;;;;;;;;;4957054;29;20249;-48
2022/10/19 06:50:56;;;;;;;22.00;10.57;;;;;;;;;;4956545;29;20219;-48
2022/10/19 06:53:24;;;;;;;21.05;10.60;;;;;;;;;;4956817;29;20190;-48
2022/10/19 06:55:51;;;;;;;20.83;11.27;;;;;;;;;;4956522;29;20215;-48
2022/10/19 06:58:18;;;;;;;23.80;10.95;;;;;;;;;;4956303;28;20298;-48
2022/10/19 07:00:53;;;;;;;17.55;10.20;;;;;;;;;;4956543;29;20242;-48
2022/10/19 07:03:20;;;;;;;16.35;10.35;;;;;;;;;;4956466;29;20245;-47
2022/10/19 07:05:55;;;;;;;16.73;9.98;;;;;;;;;;4958814;28;20215;-49
2022/10/19 07:08:23;;;;;;;19.88;10.30;;;;;;;;;;4960141;29;20215;-47
2022/10/19 07:10:55;;;;;;;16.90;9.82;;;;;;;;;;4960100;29;20659;-49
2022/10/19 07:13:22;;;;;;;18.65;10.80;;;;;;;;;;4959399;29;20204;-49
2022/10/19 07:15:58;;;;;;;15.73;10.05;;;;;;;;;;4960235;29;20222;-51
2022/10/19 07:18:26;;;;;;;19.83;10.82;;;;;;;;;;4959893;29;20202;-48
2022/10/19 07:20:55;;;;;;;17.48;10.23;;;;;;;;;;4959695;29;20678;-48
2022/10/19 07:23:22;;;;;;;18.17;10.85;;;;;;;;;;4959891;29;20523;-49
2022/10/19 07:25:51;;;;;;;15.80;10.63;;;;;;;;;;4960213;29;20535;-48
2022/10/19 07:28:19;;;;;;;16.83;10.70;;;;;;;;;;4959448;29;20207;-47
2022/10/19 07:30:47;;;;;;;18.90;10.55;;;;;;;;;;4959724;29;20281;-49
2022/10/19 07:33:13;;;;;;;21.95;11.20;;;;;;;;;;4959610;28;20623;-49
2022/10/19 07:35:41;;;;;;;18.00;11.20;;;;;;;;;;4959912;29;20219;-48
2022/10/19 07:38:08;;;;;;;16.75;10.65;;;;;;;;;;4960233;28;20199;-48
2022/10/19 07:40:35;;;;;;;17.20;10.70;;;;;;;;;;4960017;29;20231;-52
2022/10/19 07:43:02;;;;;;;19.17;11.13;;;;;;;;;;4958805;29;20302;-47
2022/10/19 07:45:31;;;;;;;23.88;11.82;;;;;;;;;;4959529;29;20208;-49
2022/10/19 07:47:58;;;;;;;21.15;11.05;;;;;;;;;;4959370;29;20207;-49
2022/10/19 07:50:26;;;;;;;18.45;11.43;;;;;;;;;;4959460;29;20211;-48
2022/10/19 07:52:53;;;;;;;21.63;12.23;;;;;;;;;;4959546;29;20639;-47
2022/10/19 07:55:20;;;;;;;16.10;10.70;;;;;;;;;;4959450;29;20207;-48
2022/10/19 07:57:48;;;;;;;17.02;11.10;;;;;;;;;;4959339;28;20231;-47
2022/10/19 08:00:16;;;;;;;15.45;11.32;;;;;;;;;;4959049;29;20227;-48
2022/10/19 08:02:43;;;;;;;18.38;11.88;;;;;;;;;;4958904;29;20242;-48
2022/10/19 08:05:25;;;;;;;21.13;11.60;;;;;;;;;;4958810;29;20282;-49
2022/10/19 08:07:52;;;;;;;18.52;10.95;;;;;;;;;;4958870;29;20710;-51
2022/10/19 08:10:19;;;;;;;18.05;11.77;;;;;;;;;;4958978;29;20274;-47
2022/10/19 08:12:46;;;;;;;15.90;10.95;;;;;;;;;;4959112;29;20226;-50
2022/10/19 08:15:14;;;;;;;17.52;10.35;;;;;;;;;;4958867;29;20203;-47
2022/10/19 08:17:40;;;;;;;23.98;11.95;;;;;;;;;;4958000;28;20214;-47
2022/10/19 08:20:08;;;;;;;18.25;10.68;;;;;;;;;;4958809;29;20227;-47
2022/10/19 08:22:35;;;;;;;19.13;11.27;;;;;;;;;;4958905;28;20287;-48
2022/10/19 08:25:03;;;;;;;20.30;11.88;;;;;;;;;;4958573;28;20241;-47
2022/10/19 08:27:29;;;;;;;21.38;11.70;;;;;;;;;;4958790;28;20294;-48
2022/10/19 08:29:57;;;;;;;18.55;11.68;;;;;;;;;;4958419;29;20219;-47
2022/10/19 08:32:24;;;;;;;19.35;11.73;;;;;;;;;;4959398;29;20232;-47
2022/10/19 08:34:51;;;;;;;17.90;10.90;;;;;;;;;;4958588;29;20216;-49
2022/10/19 08:37:18;;;;;;;16.98;11.40;;;;;;;;;;4958656;29;20216;-49
2022/10/19 08:40:09;;;;;;;19.92;10.77;;;;;;;;;;4958480;29;20242;-47
2022/10/19 08:42:42;;;;;;;14.07;8.02;;;;;;;;;;4957900;29;20522;-47
2022/10/19 08:45:28;;;;;;;12.38;8.45;;;;;;;;;;4957923;29;20207;-47
2022/10/19 08:48:14;;;;;;;13.65;7.28;;;;;;;;;;4957303;29;20192;-48
2022/10/19 08:50:43;;;;;;;13.52;6.22;;;;;;;;;;4958400;28;20207;-48
2022/10/19 08:53:15;;;;;;;12.70;6.03;;;;;;;;;;4958270;29;20200;-49
2022/10/19 08:55:55;;;;;;;14.05;7.00;;;;;;;;;;4957326;29;20266;-48
2022/10/19 08:59:03;;;;;;;13.63;6.32;;;;;;;;;;4958431;29;20214;-48
2022/10/19 09:02:14;;;;;;;17.52;6.80;;;;;;;;;;4918806;29;20228;-47
2022/10/19 09:04:46;;;;;;;10.80;6.40;;;;;;;;;;4861871;29;20297;-47
2022/10/19 09:07:24;;;;;;;14.07;6.60;;;;;;;;;;4862157;29;20211;-49
2022/10/19 09:10:04;;;;;;;8.68;6.07;;;;;;;;;;4862022;29;20594;-48
2022/10/19 09:12:43;;;;;;;12.70;6.05;;;;;;;;;;4846770;29;20210;-48
2022/10/19 09:15:23;;;;;;;13.60;6.53;;;;;;;;;;4846790;29;20297;-48
2022/10/19 09:17:50;;;;;;;15.65;6.78;;;;;;;;;;4846622;29;20211;-49
2022/10/19 09:20:24;;;;;;;8.38;6.35;;;;;;;;;;4862227;29;20234;-47
2022/10/19 09:23:35;;;;;;;8.77;4.85;;;;;;;;;;4862088;29;20214;-49
2022/10/19 09:26:07;;;;;;;7.53;3.95;;;;;;;;;;4861827;29;20211;-48
2022/10/19 09:29:11;;;;;;;8.35;4.82;;;;;;;;;;4845998;29;20605;-48
2022/10/19 09:31:43;;;;;;;11.25;5.22;;;;;;;;;;4806673;29;20645;-47
2022/10/19 09:34:15;;;;;;;7.28;4.90;;;;;;;;;;4806744;29;20332;-48
2022/10/19 09:36:57;;;;;;;12.25;4.78;;;;;;;;;;4805954;29;20224;-47
2022/10/19 09:39:26;;;;;;;10.25;4.93;;;;;;;;;;4800135;29;20638;-48
2022/10/19 09:41:57;;;;;;;10.73;5.72;;;;;;;;;;4880173;29;20293;-48
2022/10/19 09:44:26;;;;;;;13.32;5.32;;;;;;;;;;4880110;29;20206;-49
2022/10/19 09:47:24;;;;;;;11.18;4.68;;;;;;;;;;4864684;29;20213;-47
2022/10/19 09:50:24;;;;;;;10.40;4.85;;;;;;;;;;4879836;29;20225;-48
2022/10/19 09:52:58;;;;;;;6.65;4.50;;;;;;;;;;4880100;29;20206;-50
2022/10/19 09:55:36;;;;;;;9.18;4.68;;;;;;;;;;4879939;29;20672;-48
2022/10/19 09:58:16;;;;;;;8.25;4.45;;;;;;;;;;4879752;29;20243;-47
2022/10/19 10:00:45;;;;;;;8.55;4.05;;;;;;;;;;4879956;29;20238;-47
2022/10/19 10:03:48;;;;;;;7.47;3.70;;;;;;;;;;4879598;29;20689;-47
2022/10/19 10:06:21;;;;;;;10.05;3.70;;;;;;;;;;4852147;29;20706;-48
2022/10/19 10:08:56;;;;;;;11.23;4.28;;;;;;;;;;4898287;29;20214;-48
2022/10/19 10:11:28;;;;;;;6.32;3.10;;;;;;;;;;4884054;29;20249;-49
2022/10/19 10:13:56;;;;;;;9.35;3.55;;;;;;;;;;4882961;29;20279;-48
2022/10/19 10:16:32;;;;;;;7.20;3.47;;;;;;;;;;4898818;29;20217;-50
2022/10/19 10:19:03;;;;;;;6.20;3.00;;;;;;;;;;4898858;29;20209;-48
2022/10/19 10:21:44;;;;;;;7.03;3.08;;;;;;;;;;4882737;29;20759;-48
2022/10/19 10:24:10;;;;;;;7.15;3.47;;;;;;;;;;4898172;29;20300;-47
2022/10/19 10:26:43;;;;;;;7.97;3.10;;;;;;;;;;4897942;29;20220;-49
2022/10/19 10:29:20;;;;;;;9.57;3.42;;;;;;;;;;4898003;29;20220;-48
2022/10/19 10:32:06;;;;;;;6.57;3.30;;;;;;;;;;4898547;29;20216;-47
2022/10/19 10:34:36;;;;;;;7.13;3.33;;;;;;;;;;4882492;29;20667;-50
2022/10/19 10:37:39;;;;;;;8.88;2.90;;;;;;;;;;4898668;29;20228;-47
2022/10/19 10:40:19;;;;;;;8.35;3.40;;;;;;;;;;4924590;29;20278;-49
2022/10/19 10:42:50;;;;;;;12.15;4.10;;;;;;;;;;4959918;29;20203;-47
2022/10/19 10:45:22;;;;;;;6.82;3.75;;;;;;;;;;4960635;28;20211;-47
2022/10/19 10:47:50;;;;;;;7.70;3.78;;;;;;;;;;4960362;29;20622;-48
2022/10/19 10:50:21;;;;;;;7.72;3.67;;;;;;;;;;4959672;29;20301;-48
2022/10/19 10:53:30;;;;;;;5.43;3.55;;;;;;;;;;4959702;29;20282;-47
2022/10/19 10:55:57;;;;;;;10.93;4.15;;;;;;;;;;4944353;29;20207;-48
2022/10/19 10:58:37;;;;;;;9.02;4.20;;;;;;;;;;4960404;29;20207;-48
2022/10/19 11:01:06;;;;;;;7.55;4.07;;;;;;;;;;4961804;28;20621;-48
2022/10/19 11:03:34;;;;;;;8.20;5.28;;;;;;;;;;4966602;28;20238;-48
2022/10/19 11:06:01;;;;;;;11.40;5.65;;;;;;;;;;4968809;28;20203;-48
2022/10/19 11:08:56;;;;;;;7.93;4.60;;;;;;;;;;4965104;28;20203;-52
2022/10/19 11:11:33;;;;;;;14.10;6.32;;;;;;;;;;4968702;28;20221;-47
2022/10/19 11:14:28;;;;;;;5.47;1.20;;;;;;;;;;4967105;28;20215;-47
2022/10/19 11:16:57;;;;;;;2.47;0.65;;;;;;;;;;4969295;28;20542;-51
2022/10/19 11:19:30;;;;;;;1.98;0.63;;;;;;;;;;4967576;28;20654;-49
2022/10/19 11:22:34;;;;;;;3.25;1.00;;;;;;;;;;4964833;28;20318;-49
2022/10/19 11:25:39;;;;;;;5.03;1.00;;;;;;;;;;4964240;28;20210;-47
2022/10/19 11:28:15;;;;;;;3.08;0.90;;;;;;;;;;4966263;28;20195;-48
2022/10/19 11:31:08;;;;;;;2.05;0.60;;;;;;;;;;4961075;28;20229;-48
2022/10/19 11:33:59;;;;;;;3.17;0.93;;;;;;;;;;4959159;28;20230;-47
2022/10/19 11:36:46;;;;;;;3.45;1.20;;;;;;;;;;4963608;28;20237;-46
2022/10/19 11:39:28;;;;;;;2.58;1.10;;;;;;;;;;4963555;28;20235;-49
2022/10/19 11:42:00;;;;;;;3.22;1.17;;;;;;;;;;4964375;28;20567;-48
2022/10/19 11:44:45;;;;;;;2.78;1.00;;;;;;;;;;4962593;28;20226;-48
2022/10/19 11:47:31;;;;;;;2.13;0.90;;;;;;;;;;4966720;28;20242;-48
2022/10/19 11:50:11;;;;;;;3.40;1.52;;;;;;;;;;4967085;28;20219;-49
2022/10/19 11:52:50;;;;;;;3.00;1.35;;;;;;;;;;4977289;28;20222;-50
2022/10/19 11:55:31;;;;;;;2.70;0.93;;;;;;;;;;4966228;28;20294;-48
2022/10/19 11:58:05;;;;;;;4.13;1.40;;;;;;;;;;4959442;28;20234;-49
2022/10/19 12:00:43;;;;;;;2.47;1.17;;;;;;;;;;4958243;28;20228;-47
2022/10/19 12:03:32;;;;;;;2.55;1.35;;;;;;;;;;4957774;29;20239;-51
2022/10/19 12:06:39;;;;;;;1.63;1.02;;;;;;;;;;4962359;28;20241;-49
2022/10/19 12:09:43;;;;;;;3.50;1.38;;;;;;;;;;4966173;28;20230;-48
2022/10/19 12:12:41;;;;;;;3.17;1.30;;;;;;;;;;4966157;28;20550;-48
2022/10/19 12:15:27;;;;;;;5.57;1.13;;;;;;;;;;4964658;28;20219;-48
2022/10/19 12:17:57;;;;;;;2.55;1.05;;;;;;;;;;4966968;28;20234;-49
2022/10/19 12:20:27;;;;;;;2.10;1.23;;;;;;;;;;4963951;28;20666;-49
2022/10/19 12:22:56;;;;;;;2.05;0.93;;;;;;;;;;4965438;28;21571;-48
2022/10/19 12:25:23;;;;;;;2.28;1.23;;;;;;;;;;4962748;28;20662;-48
2022/10/19 12:27:51;;;;;;;3.55;1.20;;;;;;;;;;4965504;28;20677;-50
2022/10/19 12:30:22;;;;;;;3.05;1.33;;;;;;;;;;4966692;28;20219;-47
2022/10/19 12:32:57;;;;;;;3.10;1.10;;;;;;;;;;4968090;28;20350;-47
2022/10/19 12:35:24;;;;;;;3.65;1.00;;;;;;;;;;4966574;28;20234;-50
2022/10/19 12:38:13;;;;;;;3.20;1.17;;;;;;;;;;4965908;28;20285;-48
2022/10/19 12:40:51;;;;;;;3.33;0.95;;;;;;;;;;4966097;28;20222;-47
2022/10/19 12:43:23;;;;;;;3.17;1.10;;;;;;;;;;4965791;28;20223;-49
2022/10/19 12:46:11;;;;;;;3.92;1.08;;;;;;;;;;4963716;28;20219;-48
2022/10/19 12:48:38;;;;;;;2.03;0.90;;;;;;;;;;4965281;28;20238;-49
2022/10/19 12:51:11;;;;;;;2.70;1.30;;;;;;;;;;4969396;28;20234;-50
2022/10/19 12:53:39;;;;;;;1.27;1.00;;;;;;;;;;4966082;28;20219;-50
2022/10/19 12:56:22;;;;;;;3.30;1.23;;;;;;;;;;4962501;28;20231;-49
2022/10/19 12:58:58;;;;;;;4.13;1.50;;;;;;;;;;4962216;28;20508;-47
2022/10/19 13:01:42;;;;;;;4.57;1.85;;;;;;;;;;4964492;28;20245;-48
2022/10/19 13:04:12;;;;;;;2.28;1.33;;;;;;;;;;4963302;28;20227;-46
2022/10/19 13:06:48;;;;;;;2.78;1.58;;;;;;;;;;4964156;28;20227;-51
2022/10/19 13:09:36;;;;;;;3.97;1.58;;;;;;;;;;4964698;28;20661;-48
2022/10/19 13:12:12;;;;;;;3.25;1.38;;;;;;;;;;4964134;28;20792;-47
2022/10/19 13:14:54;;;;;;;5.20;1.65;;;;;;;;;;4962603;28;20596;-47
2022/10/19 13:17:35;;;;;;;3.38;1.83;;;;;;;;;;4959606;28;20599;-49
2022/10/19 13:20:14;;;;;;;4.10;1.42;;;;;;;;;;4963322;28;20242;-48
2022/10/19 13:22:49;;;;;;;3.22;1.77;;;;;;;;;;4959916;28;20273;-48
2022/10/19 13:25:16;;;;;;;3.35;1.80;;;;;;;;;;4962221;28;20218;-48
2022/10/19 13:27:44;;;;;;;2.45;1.17;;;;;;;;;;4962826;28;20223;-49
2022/10/19 13:30:33;;;;;;;3.60;1.00;;;;;;;;;;4963839;28;20223;-48
2022/10/19 13:33:27;;;;;;;1.20;0.88;;;;;;;;;;4957133;28;20227;-48
2022/10/19 13:36:03;;;;;;;2.35;0.70;;;;;;;;;;4964886;28;20309;-47
2022/10/19 13:38:33;;;;;;;2.92;0.95;;;;;;;;;;4963773;28;20219;-49
2022/10/19 13:41:14;;;;;;;2.05;0.82;;;;;;;;;;4956847;28;20733;-47
2022/10/19 13:43:53;;;;;;;1.98;0.80;;;;;;;;;;4959689;28;20211;-50
2022/10/19 13:46:29;;;;;;;0.77;0.70;;;;;;;;;;4959788;28;20590;-47
2022/10/19 13:49:27;;;;;;;1.67;0.68;;;;;;;;;;4963966;28;20219;-47
2022/10/19 13:52:04;;;;;;;3.50;0.85;;;;;;;;;;4965448;28;20222;-46
2022/10/19 13:54:31;;;;;;;0.98;0.80;;;;;;;;;;4964478;28;20214;-48
2022/10/19 13:57:04;;;;;;;3.78;0.90;;;;;;;;;;4967107;28;20289;-47
2022/10/19 13:59:38;;;;;;;1.23;0.80;;;;;;;;;;4961526;28;20223;-47
2022/10/19 14:02:31;;;;;;;2.78;1.00;;;;;;;;;;4962993;28;20223;-46
2022/10/19 14:05:04;;;;;;;2.03;0.80;;;;;;;;;;4960213;28;20227;-47
2022/10/19 14:07:38;;;;;;;3.38;0.98;;;;;;;;;;4960738;28;20216;-47
2022/10/19 14:10:15;;;;;;;0.98;0.70;;;;;;;;;;4960744;28;20219;-47
2022/10/19 14:12:44;;;;;;;0.93;0.63;;;;;;;;;;4960329;28;20226;-49
2022/10/19 14:15:17;;;;;;;4.00;0.80;;;;;;;;;;4965267;28;20280;-46
2022/10/19 14:17:44;;;;;;;2.33;0.85;;;;;;;;;;4962557;28;20227;-47
2022/10/19 14:20:31;;;;;;;1.80;0.65;;;;;;;;;;4961295;28;20216;-47
2022/10/19 14:23:33;;;;;;;0.50;0.40;;;;;;;;;;4962119;28;20216;-46
2022/10/19 14:26:02;;;;;;;0.80;0.50;;;;;;;;;;4961408;28;20682;-50
2022/10/19 14:28:30;;;;;;;1.77;0.73;;;;;;;;;;4962545;28;20319;-49
2022/10/19 14:31:06;;;;;;;1.98;0.70;;;;;;;;;;4955301;28;20260;-47
2022/10/19 14:33:36;;;;;;;2.10;1.10;;;;;;;;;;4963261;28;20223;-50
2022/10/19 14:36:05;;;;;;;1.35;0.80;;;;;;;;;;4963140;28;20681;-47
2022/10/19 14:38:35;;;;;;;1.35;0.82;;;;;;;;;;4958186;28;20219;-48
2022/10/19 14:41:17;;;;;;;1.42;0.85;;;;;;;;;;4961566;28;20234;-47
2022/10/19 14:43:44;;;;;;;2.47;1.30;;;;;;;;;;4959743;28;20241;-47
2022/10/19 14:46:15;;;;;;;2.35;1.30;;;;;;;;;;4965372;28;20226;-46
2022/10/19 14:48:44;;;;;;;3.95;1.20;;;;;;;;;;4961241;28;20222;-51
2022/10/19 14:51:33;;;;;;;2.95;1.25;;;;;;;;;;4960021;28;20247;-46
2022/10/19 14:54:35;;;;;;;2.08;1.10;;;;;;;;;;4961634;28;20246;-48
2022/10/19 14:57:18;;;;;;;3.95;1.55;;;;;;;;;;4918926;29;20235;-47
2022/10/19 14:59:48;;;;;;;3.13;1.10;;;;;;;;;;4920227;29;20228;-48
2022/10/19 15:02:23;;;;;;;3.88;1.38;;;;;;;;;;4905927;29;20258;-46
2022/10/19 15:04:51;;;;;;;4.35;1.20;;;;;;;;;;4928543;29;20577;-47